createdAt,value
2023-02-03T00:00:10.787Z,1016.73
2023-02-03T00:01:14.957Z,1016.69
2023-02-03T00:02:19.209Z,1016.67
2023-02-03T00:03:23.422Z,1016.65
2023-02-03T00:04:27.540Z,1016.66
2023-02-03T00:05:31.763Z,1016.65
2023-02-03T00:06:35.974Z,1016.63
2023-02-03T00:07:40.293Z,1016.56
2023-02-03T00:08:44.540Z,1016.54
2023-02-03T00:09:48.672Z,1016.51
2023-02-03T00:10:52.968Z,1016.51
2023-02-03T00:11:57.102Z,1016.49
2023-02-03T00:13:01.303Z,1016.50
2023-02-03T00:14:05.593Z,1016.48
2023-02-03T00:15:09.805Z,1016.43
2023-02-03T00:16:13.952Z,1016.38
2023-02-03T00:17:18.191Z,1016.30
2023-02-03T00:18:22.381Z,1016.24
2023-02-03T00:19:26.597Z,1016.19
2023-02-03T00:20:30.793Z,1016.14
2023-02-03T00:21:34.959Z,1016.12
2023-02-03T00:22:42.115Z,1016.07
2023-02-03T00:23:45.349Z,1016.05
2023-02-03T00:24:49.494Z,1016.08
2023-02-03T00:25:53.647Z,1016.11
2023-02-03T00:26:57.881Z,1016.12
2023-02-03T00:28:01.987Z,1016.12
2023-02-03T00:29:06.158Z,1016.08
2023-02-03T00:30:10.265Z,1016.02
2023-02-03T00:31:14.625Z,1015.92
2023-02-03T00:32:18.875Z,1015.88
2023-02-03T00:33:22.992Z,1015.87
2023-02-03T00:34:27.155Z,1015.85
2023-02-03T00:35:31.494Z,1015.85
2023-02-03T00:36:35.598Z,1015.84
2023-02-03T00:37:39.839Z,1015.86
2023-02-03T00:38:44.050Z,1015.83
2023-02-03T00:39:48.190Z,1015.84
2023-02-03T00:40:52.438Z,1015.83
2023-02-03T00:41:56.566Z,1015.84
2023-02-03T00:44:27.452Z,1015.78
2023-02-03T00:45:31.654Z,1015.71
2023-02-03T00:46:35.713Z,1015.65
2023-02-03T00:47:39.845Z,1015.61
2023-02-03T00:48:43.986Z,1015.58
2023-02-03T00:49:48.274Z,1015.51
2023-02-03T00:50:52.470Z,1015.45
2023-02-03T00:51:56.546Z,1015.40
2023-02-03T00:53:00.660Z,1015.39
2023-02-03T00:54:04.918Z,1015.41
2023-02-03T00:55:09.080Z,1015.37
2023-02-03T00:56:13.275Z,1015.37
2023-02-03T00:57:17.470Z,1015.31
2023-02-03T00:58:21.578Z,1015.30
2023-02-03T00:59:28.778Z,1015.30
2023-02-03T01:00:31.939Z,1015.28
2023-02-03T01:01:36.245Z,1015.27
2023-02-03T01:02:40.450Z,1015.20
2023-02-03T01:03:44.593Z,1015.15
2023-02-03T01:04:48.726Z,1015.10
2023-02-03T01:05:52.909Z,1015.05
2023-02-03T01:06:57.184Z,1014.93
2023-02-03T01:08:01.306Z,1014.91
2023-02-03T01:09:05.459Z,1014.86
2023-02-03T01:10:09.560Z,1014.82
2023-02-03T01:11:13.796Z,1014.84
2023-02-03T01:12:17.865Z,1014.86
2023-02-03T01:13:22.141Z,1014.86
2023-02-03T01:14:27.299Z,1014.82
2023-02-03T01:15:31.102Z,1014.78
2023-02-03T01:16:35.343Z,1014.73
2023-02-03T01:17:39.460Z,1014.71
2023-02-03T01:18:43.658Z,1014.69
2023-02-03T01:19:48.053Z,1014.69
2023-02-03T01:20:52.349Z,1014.67
2023-02-03T01:21:59.564Z,1014.68
2023-02-03T01:23:08.790Z,1014.71
2023-02-03T01:24:11.553Z,1014.70
2023-02-03T01:25:15.640Z,1014.71
2023-02-03T01:26:19.722Z,1014.68
2023-02-03T01:27:23.880Z,1014.64
2023-02-03T01:28:28.067Z,1014.65
2023-02-03T01:29:32.257Z,1014.58
2023-02-03T01:30:36.462Z,1014.55
2023-02-03T01:31:43.606Z,1014.52
2023-02-03T01:32:46.717Z,1014.51
2023-02-03T01:33:50.850Z,1014.51
2023-02-03T01:34:55.023Z,1014.48
2023-02-03T01:35:59.346Z,1014.43
2023-02-03T01:37:03.481Z,1014.33
2023-02-03T01:38:07.505Z,1014.27
2023-02-03T01:39:11.810Z,1014.18
2023-02-03T01:40:15.874Z,1014.14
2023-02-03T01:41:20.059Z,1014.13
2023-02-03T01:42:24.288Z,1014.08
2023-02-03T01:43:28.346Z,1014.05
2023-02-03T01:44:32.598Z,1014.00
2023-02-03T01:45:36.709Z,1013.89
2023-02-03T01:46:40.989Z,1013.85
2023-02-03T01:47:45.058Z,1013.81
2023-02-03T01:48:49.293Z,1013.77
2023-02-03T01:49:56.494Z,1013.74
2023-02-03T01:50:59.844Z,1013.73
2023-02-03T01:52:04.052Z,1013.68
2023-02-03T01:53:08.068Z,1013.65
2023-02-03T01:54:12.288Z,1013.61
2023-02-03T01:55:16.448Z,1013.54
2023-02-03T01:56:20.604Z,1013.51
2023-02-03T01:57:24.746Z,1013.43
2023-02-03T01:58:29.075Z,1013.38
2023-02-03T01:59:33.215Z,1013.30
2023-02-03T02:00:37.238Z,1013.27
2023-02-03T02:01:41.513Z,1013.25
2023-02-03T02:02:45.706Z,1013.22
2023-02-03T02:03:49.843Z,1013.18
2023-02-03T02:04:54.024Z,1013.24
2023-02-03T02:05:58.160Z,1013.24
2023-02-03T02:07:02.335Z,1013.23
2023-02-03T02:08:06.427Z,1013.25
2023-02-03T02:09:10.697Z,1013.18
2023-02-03T02:10:14.855Z,1013.11
2023-02-03T02:11:18.927Z,1013.05
2023-02-03T02:12:23.208Z,1013.09
2023-02-03T02:13:27.350Z,1013.10
2023-02-03T02:14:31.546Z,1013.16
2023-02-03T02:15:35.951Z,1013.15
2023-02-03T02:16:39.836Z,1013.11
2023-02-03T02:17:44.107Z,1013.04
2023-02-03T02:18:48.275Z,1013.00
2023-02-03T02:19:52.475Z,1012.99
2023-02-03T02:20:56.645Z,1013.00
2023-02-03T02:22:00.798Z,1012.95
2023-02-03T02:23:05.033Z,1012.89
2023-02-03T02:24:09.141Z,1012.86
2023-02-03T02:25:13.317Z,1012.81
2023-02-03T02:27:44.644Z,1012.64
2023-02-03T02:28:48.737Z,1012.62
2023-02-03T02:29:52.941Z,1012.53
2023-02-03T02:30:57.125Z,1012.52
2023-02-03T02:32:04.293Z,1012.51
2023-02-03T02:33:07.428Z,1012.50
2023-02-03T02:34:11.591Z,1012.47
2023-02-03T02:35:15.885Z,1012.41
2023-02-03T02:36:20.014Z,1012.34
2023-02-03T02:37:24.243Z,1012.27
2023-02-03T02:38:28.593Z,1012.27
2023-02-03T02:39:32.735Z,1012.23
2023-02-03T02:40:39.945Z,1012.21
2023-02-03T02:41:43.117Z,1012.22
2023-02-03T02:42:47.254Z,1012.21
2023-02-03T02:43:51.409Z,1012.21
2023-02-03T02:44:55.604Z,1012.19
2023-02-03T02:45:59.814Z,1012.20
2023-02-03T02:47:03.827Z,1012.16
2023-02-03T02:48:08.043Z,1012.16
2023-02-03T02:49:12.248Z,1012.15
2023-02-03T02:50:16.434Z,1012.09
2023-02-03T02:51:20.741Z,1012.02
2023-02-03T02:52:24.906Z,1011.96
2023-02-03T02:53:29.095Z,1011.88
2023-02-03T02:54:36.271Z,1011.82
2023-02-03T02:55:39.521Z,1011.74
2023-02-03T02:56:43.589Z,1011.75
2023-02-03T02:57:47.801Z,1011.79
2023-02-03T02:58:51.966Z,1011.82
2023-02-03T02:59:56.175Z,1011.81
2023-02-03T03:01:00.390Z,1011.83
2023-02-03T03:02:04.607Z,1011.81
2023-02-03T03:03:08.717Z,1011.74
2023-02-03T03:04:12.953Z,1011.72
2023-02-03T03:05:17.153Z,1011.70
2023-02-03T03:06:21.347Z,1011.65
2023-02-03T03:07:25.498Z,1011.64
2023-02-03T03:08:29.649Z,1011.56
2023-02-03T03:09:33.815Z,1011.48
2023-02-03T03:10:38.025Z,1011.46
2023-02-03T03:11:42.335Z,1011.53
2023-02-03T03:12:46.503Z,1011.58
2023-02-03T03:13:50.742Z,1011.51
2023-02-03T03:14:54.904Z,1011.44
2023-02-03T03:15:59.140Z,1011.41
2023-02-03T03:17:03.410Z,1011.41
2023-02-03T03:18:07.544Z,1011.38
2023-02-03T03:19:11.605Z,1011.39
2023-02-03T03:20:15.879Z,1011.40
2023-02-03T03:21:20.130Z,1011.35
2023-02-03T03:22:24.246Z,1011.33
2023-02-03T03:23:28.419Z,1011.24
2023-02-03T03:24:32.597Z,1011.26
2023-02-03T03:25:36.956Z,1011.19
2023-02-03T03:26:40.934Z,1011.19
2023-02-03T03:27:45.265Z,1011.09
2023-02-03T03:28:49.425Z,1011.04
2023-02-03T03:29:53.669Z,1011.04
2023-02-03T03:30:57.932Z,1010.98
2023-02-03T03:32:02.039Z,1010.95
2023-02-03T03:33:06.195Z,1010.93
2023-02-03T03:34:10.510Z,1010.85
2023-02-03T03:35:14.631Z,1010.82
2023-02-03T03:36:18.883Z,1010.76
2023-02-03T03:37:23.228Z,1010.71
2023-02-03T03:38:27.337Z,1010.70
2023-02-03T03:39:31.472Z,1010.67
2023-02-03T03:40:35.967Z,1010.64
2023-02-03T03:41:40.055Z,1010.66
2023-02-03T03:42:44.241Z,1010.64
2023-02-03T03:43:48.436Z,1010.59
2023-02-03T03:44:52.625Z,1010.56
2023-02-03T03:45:56.819Z,1010.54
2023-02-03T03:47:01.108Z,1010.54
2023-02-03T03:48:05.347Z,1010.55
2023-02-03T03:49:09.515Z,1010.55
2023-02-03T03:50:13.760Z,1010.44
2023-02-03T03:51:17.936Z,1010.41
2023-02-03T03:52:21.991Z,1010.36
2023-02-03T03:53:26.253Z,1010.36
2023-02-03T03:54:30.429Z,1010.32
2023-02-03T03:55:34.633Z,1010.27
2023-02-03T03:56:52.905Z,1010.29
2023-02-03T03:57:55.870Z,1010.25
2023-02-03T03:59:00.016Z,1010.23
2023-02-03T04:00:04.209Z,1010.16
2023-02-03T04:01:08.483Z,1010.12
2023-02-03T04:02:12.706Z,1010.08
2023-02-03T04:03:19.941Z,1010.06
2023-02-03T04:04:23.122Z,1010.00
2023-02-03T04:05:27.278Z,1009.99
2023-02-03T04:06:31.508Z,1009.97
2023-02-03T04:07:35.704Z,1009.99
2023-02-03T04:08:39.941Z,1010.00
2023-02-03T04:09:44.150Z,1010.04
2023-02-03T04:10:48.323Z,1010.03
2023-02-03T04:11:52.680Z,1010.01
2023-02-03T04:12:56.904Z,1009.98
2023-02-03T04:14:01.171Z,1009.97
2023-02-03T04:15:05.320Z,1009.93
2023-02-03T04:16:09.617Z,1009.92
2023-02-03T04:17:13.713Z,1009.85
2023-02-03T04:18:17.965Z,1009.82
2023-02-03T04:19:22.081Z,1009.83
2023-02-03T04:20:26.573Z,1009.80
2023-02-03T04:21:30.528Z,1009.78
2023-02-03T04:22:34.741Z,1009.80
2023-02-03T04:23:38.924Z,1009.81
2023-02-03T04:24:43.170Z,1009.81
2023-02-03T04:25:47.380Z,1009.82
2023-02-03T04:26:51.692Z,1009.80
2023-02-03T04:27:58.958Z,1009.78
2023-02-03T04:29:02.101Z,1009.75
2023-02-03T04:30:06.326Z,1009.73
2023-02-03T04:31:10.891Z,1009.69
2023-02-03T04:32:14.790Z,1009.67
2023-02-03T04:33:21.941Z,1009.62
2023-02-03T04:34:25.171Z,1009.56
2023-02-03T04:35:29.488Z,1009.55
2023-02-03T04:36:33.707Z,1009.47
2023-02-03T04:37:37.885Z,1009.45
2023-02-03T04:38:42.064Z,1009.45
2023-02-03T04:39:46.285Z,1009.44
2023-02-03T04:40:56.516Z,1009.41
2023-02-03T04:41:59.294Z,1009.35
2023-02-03T04:43:03.517Z,1009.31
2023-02-03T04:44:07.762Z,1009.29
2023-02-03T04:45:11.934Z,1009.30
2023-02-03T04:46:16.188Z,1009.28
2023-02-03T04:47:20.387Z,1009.32
2023-02-03T04:48:24.466Z,1009.28
2023-02-03T04:49:28.644Z,1009.25
2023-02-03T04:50:32.977Z,1009.21
2023-02-03T04:51:37.117Z,1009.14
2023-02-03T04:52:41.238Z,1009.08
2023-02-03T04:53:45.479Z,1009.08
2023-02-03T04:54:49.599Z,1009.06
2023-02-03T04:55:53.844Z,1009.05
2023-02-03T04:57:01.071Z,1009.00
2023-02-03T04:58:04.336Z,1008.95
2023-02-03T04:59:08.578Z,1008.90
2023-02-03T05:00:12.768Z,1008.83
2023-02-03T05:01:17.019Z,1008.84
2023-02-03T05:02:21.231Z,1008.82
2023-02-03T05:03:26.431Z,1008.77
2023-02-03T05:04:29.651Z,1008.75
2023-02-03T05:05:33.933Z,1008.69
2023-02-03T05:06:44.162Z,1008.73
2023-02-03T05:07:46.946Z,1008.73
2023-02-03T05:08:51.134Z,1008.69
2023-02-03T05:09:55.345Z,1008.60
2023-02-03T05:11:01.865Z,1008.57
2023-02-03T05:12:03.682Z,1008.53
2023-02-03T05:13:07.998Z,1008.53
2023-02-03T05:14:12.244Z,1008.52
2023-02-03T05:15:16.401Z,1008.50
2023-02-03T05:16:20.673Z,1008.50
2023-02-03T05:17:24.789Z,1008.50
2023-02-03T05:18:28.987Z,1008.50
2023-02-03T05:19:33.192Z,1008.45
2023-02-03T05:20:37.389Z,1008.42
2023-02-03T05:21:41.545Z,1008.43
2023-02-03T05:22:45.866Z,1008.44
2023-02-03T05:23:49.996Z,1008.45
2023-02-03T05:24:54.259Z,1008.48
2023-02-03T05:25:58.527Z,1008.44
2023-02-03T05:27:02.763Z,1008.41
2023-02-03T05:28:06.994Z,1008.41
2023-02-03T05:29:11.134Z,1008.36
2023-02-03T05:30:15.432Z,1008.34
2023-02-03T05:31:19.909Z,1008.33
2023-02-03T05:32:23.870Z,1008.26
2023-02-03T05:33:28.051Z,1008.25
2023-02-03T05:34:32.354Z,1008.25
2023-02-03T05:35:36.512Z,1008.24
2023-02-03T05:36:40.706Z,1008.17
2023-02-03T05:37:44.953Z,1008.14
2023-02-03T05:38:49.136Z,1008.12
2023-02-03T05:39:53.346Z,1008.13
2023-02-03T05:40:57.532Z,1008.11
2023-02-03T05:42:04.910Z,1008.11
2023-02-03T05:43:08.175Z,1008.11
2023-02-03T05:44:12.417Z,1008.11
2023-02-03T05:45:16.594Z,1008.10
2023-02-03T05:46:20.775Z,1008.12
2023-02-03T05:47:25.028Z,1008.09
2023-02-03T05:48:29.219Z,1008.06
2023-02-03T05:49:33.447Z,1008.03
2023-02-03T05:50:38.826Z,1008.02
2023-02-03T05:51:41.831Z,1007.98
2023-02-03T05:52:46.167Z,1007.99
2023-02-03T05:53:50.312Z,1007.97
2023-02-03T05:54:54.531Z,1007.93
2023-02-03T05:55:58.708Z,1007.95
2023-02-03T05:57:02.892Z,1007.92
2023-02-03T05:58:07.107Z,1007.86
2023-02-03T05:59:11.323Z,1007.86
2023-02-03T06:00:21.515Z,1007.81
2023-02-03T06:01:24.286Z,1007.80
2023-02-03T06:02:28.454Z,1007.75
2023-02-03T06:03:32.751Z,1007.68
2023-02-03T06:04:36.968Z,1007.66
2023-02-03T06:05:41.261Z,1007.62
2023-02-03T06:06:45.344Z,1007.60
2023-02-03T06:07:49.592Z,1007.56
2023-02-03T06:08:53.750Z,1007.51
2023-02-03T06:09:57.997Z,1007.51
2023-02-03T06:11:02.231Z,1007.52
2023-02-03T06:12:06.535Z,1007.52
2023-02-03T06:13:10.655Z,1007.54
2023-02-03T06:14:14.898Z,1007.50
2023-02-03T06:15:19.204Z,1007.48
2023-02-03T06:16:23.491Z,1007.45
2023-02-03T06:17:27.604Z,1007.44
2023-02-03T06:18:31.797Z,1007.43
2023-02-03T06:19:36.060Z,1007.38
2023-02-03T06:20:40.268Z,1007.36
2023-02-03T06:21:44.631Z,1007.32
2023-02-03T06:22:48.789Z,1007.35
2023-02-03T06:23:53.043Z,1007.33
2023-02-03T06:24:57.303Z,1007.31
2023-02-03T06:26:01.516Z,1007.27
2023-02-03T06:27:05.737Z,1007.31
2023-02-03T06:28:10.031Z,1007.28
2023-02-03T06:29:14.124Z,1007.23
2023-02-03T06:30:18.486Z,1007.26
2023-02-03T06:31:22.799Z,1007.25
2023-02-03T06:32:26.812Z,1007.22
2023-02-03T06:33:45.160Z,1007.21
2023-02-03T06:34:48.130Z,1007.22
2023-02-03T06:35:52.263Z,1007.25
2023-02-03T06:36:56.493Z,1007.20
2023-02-03T06:38:00.781Z,1007.20
2023-02-03T06:39:05.143Z,1007.19
2023-02-03T06:40:09.274Z,1007.13
2023-02-03T06:41:13.468Z,1007.07
2023-02-03T06:42:17.713Z,1007.04
2023-02-03T06:43:21.895Z,1006.97
2023-02-03T06:44:26.121Z,1006.98
2023-02-03T06:45:30.349Z,1006.95
2023-02-03T06:46:34.660Z,1006.88
2023-02-03T06:47:38.733Z,1006.88
2023-02-03T06:48:42.975Z,1006.84
2023-02-03T06:49:47.185Z,1006.82
2023-02-03T06:50:51.412Z,1006.82
2023-02-03T06:51:55.729Z,1006.75
2023-02-03T06:52:59.945Z,1006.78
2023-02-03T06:54:04.167Z,1006.72
2023-02-03T06:55:08.352Z,1006.74
2023-02-03T06:56:12.560Z,1006.73
2023-02-03T06:57:16.867Z,1006.76
2023-02-03T06:58:21.024Z,1006.76
2023-02-03T06:59:25.408Z,1006.79
2023-02-03T07:00:29.983Z,1006.80
2023-02-03T07:01:33.761Z,1006.75
2023-02-03T07:02:37.974Z,1006.73
2023-02-03T07:03:42.213Z,1006.71
2023-02-03T07:04:46.529Z,1006.72
2023-02-03T07:05:50.704Z,1006.71
2023-02-03T07:06:55.005Z,1006.70
2023-02-03T07:07:59.092Z,1006.67
2023-02-03T07:09:03.333Z,1006.66
2023-02-03T07:10:07.487Z,1006.61
2023-02-03T07:11:11.698Z,1006.61
2023-02-03T07:12:15.887Z,1006.55
2023-02-03T07:13:20.060Z,1006.55
2023-02-03T07:14:24.310Z,1006.56
2023-02-03T07:15:28.533Z,1006.54
2023-02-03T07:16:32.710Z,1006.50
2023-02-03T07:17:36.978Z,1006.47
2023-02-03T07:18:47.381Z,1006.47
2023-02-03T07:19:46.183Z,1006.42
2023-02-03T07:20:49.599Z,1006.43
2023-02-03T07:21:53.812Z,1006.40
2023-02-03T07:22:58.065Z,1006.40
2023-02-03T07:24:02.376Z,1006.42
2023-02-03T07:25:06.579Z,1006.39
2023-02-03T07:26:10.748Z,1006.36
2023-02-03T07:27:14.987Z,1006.37
2023-02-03T07:28:19.236Z,1006.38
2023-02-03T07:29:23.504Z,1006.37
2023-02-03T07:30:27.950Z,1006.35
2023-02-03T07:31:31.906Z,1006.32
2023-02-03T07:32:36.042Z,1006.34
2023-02-03T07:33:40.347Z,1006.31
2023-02-03T07:34:44.558Z,1006.28
2023-02-03T07:35:48.739Z,1006.20
2023-02-03T07:36:52.967Z,1006.21
2023-02-03T07:37:57.160Z,1006.21
2023-02-03T07:39:01.397Z,1006.25
2023-02-03T07:40:05.657Z,1006.16
2023-02-03T07:41:09.944Z,1006.18
2023-02-03T07:42:14.185Z,1006.18
2023-02-03T07:43:18.434Z,1006.14
2023-02-03T07:44:22.584Z,1006.09
2023-02-03T07:45:26.786Z,1006.13
2023-02-03T07:46:31.062Z,1006.09
2023-02-03T07:47:35.097Z,1006.08
2023-02-03T07:48:39.385Z,1006.07
2023-02-03T07:49:43.675Z,1006.00
2023-02-03T07:50:47.885Z,1006.01
2023-02-03T07:51:52.107Z,1006.02
2023-02-03T07:52:56.318Z,1006.03
2023-02-03T07:54:00.527Z,1005.90
2023-02-03T07:55:04.743Z,1006.01
2023-02-03T07:56:08.966Z,1005.98
2023-02-03T07:57:13.351Z,1006.01
2023-02-03T07:58:17.464Z,1006.00
2023-02-03T07:59:21.714Z,1005.95
2023-02-03T08:00:26.315Z,1005.94
2023-02-03T08:01:31.331Z,1005.96
2023-02-03T08:02:34.416Z,1005.93
2023-02-03T08:03:38.684Z,1005.98
2023-02-03T08:04:42.929Z,1005.97
2023-02-03T08:05:47.198Z,1005.98
2023-02-03T08:06:51.375Z,1005.92
2023-02-03T08:07:55.681Z,1005.93
2023-02-03T08:08:59.941Z,1005.87
2023-02-03T08:10:04.224Z,1005.92
2023-02-03T08:11:08.457Z,1005.92
2023-02-03T08:12:12.657Z,1005.95
2023-02-03T08:13:19.970Z,1005.89
2023-02-03T08:14:23.263Z,1005.97
2023-02-03T08:15:27.506Z,1006.00
2023-02-03T08:16:31.738Z,1005.83
2023-02-03T08:17:35.887Z,1005.92
2023-02-03T08:18:40.111Z,1005.89
2023-02-03T08:19:44.335Z,1005.89
2023-02-03T08:20:48.547Z,1005.92
2023-02-03T08:21:52.823Z,1005.96
2023-02-03T08:22:57.065Z,1005.92
2023-02-03T08:24:01.344Z,1006.09
2023-02-03T08:25:05.556Z,1006.13
2023-02-03T08:26:09.807Z,1006.15
2023-02-03T08:27:14.012Z,1006.03
2023-02-03T08:28:18.381Z,1006.19
2023-02-03T08:29:36.578Z,1006.13
2023-02-03T08:30:39.560Z,1006.09
2023-02-03T08:31:43.840Z,1006.07
2023-02-03T08:32:47.995Z,1006.07
2023-02-03T08:33:52.213Z,1006.01
2023-02-03T08:34:56.498Z,1006.06
2023-02-03T08:36:00.748Z,1006.03
2023-02-03T08:37:05.044Z,1005.97
2023-02-03T08:38:09.175Z,1006.02
2023-02-03T08:39:13.429Z,1006.04
2023-02-03T08:40:17.619Z,1006.04
2023-02-03T08:41:35.930Z,1006.07
2023-02-03T08:42:39.174Z,1006.06
2023-02-03T08:43:43.300Z,1006.01
2023-02-03T08:44:47.549Z,1006.13
2023-02-03T08:45:51.855Z,1006.22
2023-02-03T08:46:55.982Z,1006.27
2023-02-03T08:48:00.182Z,1006.28
2023-02-03T08:49:04.393Z,1006.24
2023-02-03T08:50:08.683Z,1006.20
2023-02-03T08:51:12.922Z,1006.22
2023-02-03T08:52:19.056Z,1006.13
2023-02-03T08:53:21.361Z,1006.11
2023-02-03T08:54:25.556Z,1006.05
2023-02-03T08:55:29.778Z,1006.04
2023-02-03T08:56:34.017Z,1006.09
2023-02-03T08:57:38.107Z,1006.11
2023-02-03T08:58:42.461Z,1006.14
2023-02-03T08:59:46.592Z,1006.17
2023-02-03T09:00:50.913Z,1006.16
2023-02-03T09:01:55.067Z,1006.16
2023-02-03T09:03:13.351Z,1006.21
2023-02-03T09:04:16.297Z,1006.25
2023-02-03T09:05:20.543Z,1006.29
2023-02-03T09:06:26.290Z,1006.24
2023-02-03T09:07:28.913Z,1006.22
2023-02-03T09:08:33.142Z,1006.25
2023-02-03T09:09:37.366Z,1006.27
2023-02-03T09:10:41.601Z,1006.37
2023-02-03T09:11:45.819Z,1006.38
2023-02-03T09:12:50.032Z,1006.53
2023-02-03T09:13:54.260Z,1006.52
2023-02-03T09:14:58.457Z,1006.55
2023-02-03T09:16:02.817Z,1006.50
2023-02-03T09:17:06.876Z,1006.55
2023-02-03T09:18:11.119Z,1006.54
2023-02-03T09:19:15.342Z,1006.59
2023-02-03T09:20:19.683Z,1006.57
2023-02-03T09:21:33.109Z,1006.53
2023-02-03T09:22:28.009Z,1006.60
2023-02-03T09:23:32.239Z,1006.47
2023-02-03T09:24:36.536Z,1006.38
2023-02-03T09:25:41.609Z,1006.38
2023-02-03T09:26:45.077Z,1006.36
2023-02-03T09:27:49.310Z,1006.38
2023-02-03T09:28:53.435Z,1006.37
2023-02-03T09:29:57.685Z,1006.40
2023-02-03T09:31:01.966Z,1006.35
2023-02-03T09:32:06.200Z,1006.41
2023-02-03T09:33:10.372Z,1006.43
2023-02-03T09:34:14.544Z,1006.39
2023-02-03T09:35:18.814Z,1006.34
2023-02-03T09:36:23.068Z,1006.49
2023-02-03T09:37:27.217Z,1006.40
2023-02-03T09:38:31.463Z,1006.40
2023-02-03T09:39:35.746Z,1006.44
2023-02-03T09:40:39.929Z,1006.44
2023-02-03T09:41:44.166Z,1006.51
2023-02-03T09:42:48.351Z,1006.56
2023-02-03T09:43:52.564Z,1006.53
2023-02-03T09:44:56.809Z,1006.50
2023-02-03T09:46:01.111Z,1006.56
2023-02-03T09:47:06.051Z,1006.62
2023-02-03T09:48:09.513Z,1006.58
2023-02-03T09:49:13.721Z,1006.57
2023-02-03T09:50:18.010Z,1006.59
2023-02-03T09:51:22.184Z,1006.68
2023-02-03T09:52:26.366Z,1006.64
2023-02-03T09:53:30.589Z,1006.61
2023-02-03T09:54:34.937Z,1006.63
2023-02-03T09:55:39.142Z,1006.69
2023-02-03T09:56:43.346Z,1006.63
2023-02-03T09:57:47.551Z,1006.63
2023-02-03T09:58:51.766Z,1006.65
2023-02-03T09:59:55.997Z,1006.76
2023-02-03T10:01:00.383Z,1006.69
2023-02-03T10:02:04.497Z,1006.73
2023-02-03T10:03:08.754Z,1006.63
2023-02-03T10:04:13.033Z,1006.59
2023-02-03T10:05:17.139Z,1006.71
2023-02-03T10:06:21.365Z,1006.69
2023-02-03T10:07:25.691Z,1006.64
2023-02-03T10:08:29.885Z,1006.59
2023-02-03T10:09:34.092Z,1006.56
2023-02-03T10:10:38.312Z,1006.51
2023-02-03T10:11:42.591Z,1006.57
2023-02-03T10:12:46.782Z,1006.60
2023-02-03T10:13:51.030Z,1006.60
2023-02-03T10:14:55.275Z,1006.55
2023-02-03T10:15:59.459Z,1006.49
2023-02-03T10:17:03.722Z,1006.64
2023-02-03T10:18:07.919Z,1006.57
2023-02-03T10:19:18.367Z,1006.61
2023-02-03T10:20:21.129Z,1006.54
2023-02-03T10:21:25.454Z,1006.67
2023-02-03T10:22:29.773Z,1006.64
2023-02-03T10:23:34.059Z,1006.71
2023-02-03T10:24:38.191Z,1006.70
2023-02-03T10:25:42.391Z,1006.85
2023-02-03T10:26:46.670Z,1006.83
2023-02-03T10:27:50.940Z,1006.81
2023-02-03T10:28:55.084Z,1006.82
2023-02-03T10:29:59.441Z,1006.86
2023-02-03T10:31:03.721Z,1006.97
2023-02-03T10:32:08.005Z,1006.88
2023-02-03T10:33:11.992Z,1006.91
2023-02-03T10:34:16.236Z,1006.87
2023-02-03T10:35:20.489Z,1006.89
2023-02-03T10:36:24.694Z,1006.90
2023-02-03T10:37:30.299Z,1006.92
2023-02-03T10:38:33.253Z,1006.97
2023-02-03T10:39:37.520Z,1006.93
2023-02-03T10:40:41.851Z,1007.00
2023-02-03T10:41:46.009Z,1006.96
2023-02-03T10:42:50.212Z,1006.90
2023-02-03T10:43:56.043Z,1006.95
2023-02-03T10:44:58.613Z,1006.95
2023-02-03T10:46:02.989Z,1006.95
2023-02-03T10:47:07.127Z,1006.96
2023-02-03T10:48:11.362Z,1007.03
2023-02-03T10:49:15.614Z,1006.96
2023-02-03T10:50:19.896Z,1006.95
2023-02-03T10:51:24.183Z,1006.84
2023-02-03T10:52:28.378Z,1006.94
2023-02-03T10:53:32.624Z,1006.90
2023-02-03T10:54:36.841Z,1006.93
2023-02-03T10:55:41.092Z,1006.92
2023-02-03T10:56:45.273Z,1006.88
2023-02-03T10:57:49.520Z,1006.94
2023-02-03T10:58:53.853Z,1006.98
2023-02-03T10:59:58.000Z,1006.93
2023-02-03T11:01:02.185Z,1006.98
2023-02-03T11:02:06.509Z,1006.99
2023-02-03T11:03:10.698Z,1007.01
2023-02-03T11:04:15.003Z,1007.00
2023-02-03T11:05:19.214Z,1006.97
2023-02-03T11:06:23.411Z,1007.02
2023-02-03T11:07:27.675Z,1007.04
2023-02-03T11:08:31.863Z,1007.08
2023-02-03T11:09:36.064Z,1007.06
2023-02-03T11:10:40.273Z,1007.10
2023-02-03T11:11:44.532Z,1007.03
2023-02-03T11:12:48.683Z,1007.16
2023-02-03T11:13:52.948Z,1007.12
2023-02-03T11:14:57.201Z,1007.14
2023-02-03T11:16:01.550Z,1007.17
2023-02-03T11:17:05.675Z,1007.13
2023-02-03T11:18:09.887Z,1007.15
2023-02-03T11:19:14.226Z,1007.18
2023-02-03T11:20:18.458Z,1007.22
2023-02-03T11:21:22.744Z,1007.17
2023-02-03T11:22:26.894Z,1007.18
2023-02-03T11:23:31.129Z,1007.24
2023-02-03T11:24:35.339Z,1007.23
2023-02-03T11:25:39.636Z,1007.27
2023-02-03T11:26:43.884Z,1007.35
2023-02-03T11:27:48.163Z,1007.33
2023-02-03T11:28:52.235Z,1007.38
2023-02-03T11:29:56.398Z,1007.41
2023-02-03T11:31:00.800Z,1007.31
2023-02-03T11:32:04.962Z,1007.42
2023-02-03T11:33:09.078Z,1007.28
2023-02-03T11:34:13.298Z,1007.36
2023-02-03T11:35:17.520Z,1007.36
2023-02-03T11:36:21.781Z,1007.40
2023-02-03T11:37:26.065Z,1007.41
2023-02-03T11:38:30.337Z,1007.44
2023-02-03T11:39:34.640Z,1007.43
2023-02-03T11:40:38.816Z,1007.49
2023-02-03T11:41:43.056Z,1007.45
2023-02-03T11:42:47.256Z,1007.52
2023-02-03T11:43:51.464Z,1007.50
2023-02-03T11:44:55.714Z,1007.44
2023-02-03T11:46:00.016Z,1007.56
2023-02-03T11:47:04.164Z,1007.30
2023-02-03T11:48:08.500Z,1007.41
2023-02-03T11:49:12.614Z,1007.34
2023-02-03T11:50:16.944Z,1007.35
2023-02-03T11:51:21.090Z,1007.34
2023-02-03T11:52:25.144Z,1007.39
2023-02-03T11:53:29.449Z,1007.32
2023-02-03T11:54:33.719Z,1007.29
2023-02-03T11:55:37.898Z,1007.25
2023-02-03T11:56:42.207Z,1007.39
2023-02-03T11:57:46.352Z,1007.37
2023-02-03T11:58:50.501Z,1007.30
2023-02-03T11:59:54.698Z,1007.37
2023-02-03T12:00:59.037Z,1007.41
2023-02-03T12:02:03.281Z,1007.40
2023-02-03T12:03:07.535Z,1007.37
2023-02-03T12:04:11.697Z,1007.37
2023-02-03T12:05:15.864Z,1007.41
2023-02-03T12:06:20.142Z,1007.31
2023-02-03T12:07:24.285Z,1007.41
2023-02-03T12:08:28.509Z,1007.53
2023-02-03T12:09:32.729Z,1007.40
2023-02-03T12:10:37.074Z,1007.30
2023-02-03T12:11:41.243Z,1007.34
2023-02-03T12:12:45.399Z,1007.29
2023-02-03T12:13:49.637Z,1007.29
2023-02-03T12:14:53.848Z,1007.25
2023-02-03T12:15:58.141Z,1007.33
2023-02-03T12:17:02.317Z,1007.22
2023-02-03T12:18:06.641Z,1007.20
2023-02-03T12:19:10.814Z,1007.24
2023-02-03T12:20:14.929Z,1007.34
2023-02-03T12:21:19.165Z,1007.26
2023-02-03T12:22:23.359Z,1007.35
2023-02-03T12:23:27.681Z,1007.29
2023-02-03T12:24:31.901Z,1007.34
2023-02-03T12:25:36.216Z,1007.46
2023-02-03T12:26:40.400Z,1007.36
2023-02-03T12:27:44.767Z,1007.41
2023-02-03T12:28:48.841Z,1007.37
2023-02-03T12:31:20.490Z,1007.41
2023-02-03T12:32:24.485Z,1007.44
2023-02-03T12:33:28.720Z,1007.39
2023-02-03T12:34:33.022Z,1007.39
2023-02-03T12:35:37.122Z,1007.45
2023-02-03T12:36:41.440Z,1007.43
2023-02-03T12:37:45.614Z,1007.51
2023-02-03T12:38:50.003Z,1007.57
2023-02-03T12:39:54.137Z,1007.49
2023-02-03T12:40:58.379Z,1007.48
2023-02-03T12:42:02.589Z,1007.47
2023-02-03T12:43:06.847Z,1007.42
2023-02-03T12:44:11.031Z,1007.51
2023-02-03T12:45:15.249Z,1007.51
2023-02-03T12:46:19.655Z,1007.42
2023-02-03T12:47:23.748Z,1007.47
2023-02-03T12:48:28.068Z,1007.33
2023-02-03T12:49:32.350Z,1007.47
2023-02-03T12:50:36.558Z,1007.45
2023-02-03T12:51:40.757Z,1007.47
2023-02-03T12:52:44.982Z,1007.44
2023-02-03T12:53:49.283Z,1007.67
2023-02-03T12:54:53.612Z,1007.54
2023-02-03T12:55:57.767Z,1007.67
2023-02-03T12:57:01.989Z,1007.61
2023-02-03T12:58:06.337Z,1007.53
2023-02-03T12:59:10.647Z,1007.49
2023-02-03T13:00:14.969Z,1007.50
2023-02-03T13:01:19.091Z,1007.62
2023-02-03T13:02:23.299Z,1007.63